Cooks, Michigan
Current Conditions -  °F | °C
As of 4:34 AM on Tuesday 21 Oct 2014 (Local Time) from KISQ Reporting Station
Overcast Overcast  
Wind Chill: 37°   Ceiling: 2500
Heat Index: 42°   Visibility: 10mi
Dew Point: 39°   Wind: 8mph
Humidity: 90%   Direction: 350°N
Pressure: 30.06"   Gusts: NA
Location:  45.92°N, 86.48°W
Report Text: KISQ 210834Z AUTO 35007KT 10SM OVC025 06/04 A3006 RMK AO2 T00550040
Loading
Personal Weather Stations






























Interactive Weather Map
Tropical Storm Tracking
New forecast layout! Learn more

10-Day Weather Forecast

Advertisements
Track Severe Weather on mobile